sensor_id;sensor_type;location;lat;lon;timestamp;temperature;humidity
13369;DHT22;6753;52.520;13.450;2023-04-30T00:00:09;19.60;44.40
13369;DHT22;6753;52.520;13.450;2023-04-30T00:00:21;19.10;42.90
13369;DHT22;6753;52.520;13.450;2023-04-30T00:00:32;19.10;42.40
13369;DHT22;6753;52.520;13.450;2023-04-30T00:00:43;19.10;42.50
13369;DHT22;6753;52.520;13.450;2023-04-30T00:00:54;19.10;42.80
13369;DHT22;6753;52.520;13.450;2023-04-30T00:01:05;19.10;42.80
13369;DHT22;6753;52.520;13.450;2023-04-30T00:01:15;19.10;43.50
13369;DHT22;6753;52.520;13.450;2023-04-30T00:01:27;19.10;43.90
13369;DHT22;6753;52.520;13.450;2023-04-30T00:01:39;20.20;45.70
13369;DHT22;6753;52.520;13.450;2023-04-30T00:01:51;20.00;45.30
13369;DHT22;6753;52.520;13.450;2023-04-30T00:02:02;19.10;44.40
13369;DHT22;6753;52.520;13.450;2023-04-30T00:02:12;19.00;44.20
13369;DHT22;6753;52.520;13.450;2023-04-30T00:02:23;19.00;44.40
13369;DHT22;6753;52.520;13.450;2023-04-30T00:02:34;19.00;44.00
13369;DHT22;6753;52.520;13.450;2023-04-30T00:02:45;19.10;43.40
13369;DHT22;6753;52.520;13.450;2023-04-30T00:02:56;19.60;43.50
13369;DHT22;6753;52.520;13.450;2023-04-30T00:03:06;19.10;42.40
13369;DHT22;6753;52.520;13.450;2023-04-30T00:03:17;19.10;42.30
13369;DHT22;6753;52.520;13.450;2023-04-30T00:03:29;19.10;42.60
13369;DHT22;6753;52.520;13.450;2023-04-30T00:03:40;20.20;45.00
13369;DHT22;6753;52.520;13.450;2023-04-30T00:03:51;20.50;45.70
13369;DHT22;6753;52.520;13.450;2023-04-30T00:04:02;19.10;43.90
13369;DHT22;6753;52.520;13.450;2023-04-30T00:04:13;19.10;44.00
13369;DHT22;6753;52.520;13.450;2023-04-30T00:04:24;19.00;43.80
13369;DHT22;6753;52.520;13.450;2023-04-30T00:04:35;21.90;47.90
13369;DHT22;6753;52.520;13.450;2023-04-30T00:04:46;19.00;43.30
13369;DHT22;6753;52.520;13.450;2023-04-30T00:04:57;19.00;43.20
13369;DHT22;6753;52.520;13.450;2023-04-30T00:05:08;19.10;43.00
13369;DHT22;6753;52.520;13.450;2023-04-30T00:05:19;19.10;43.10
13369;DHT22;6753;52.520;13.450;2023-04-30T00:05:30;21.00;45.70
13369;DHT22;6753;52.520;13.450;2023-04-30T00:05:41;19.00;43.00
13369;DHT22;6753;52.520;13.450;2023-04-30T00:05:52;19.00;42.70
13369;DHT22;6753;52.520;13.450;2023-04-30T00:06:03;19.00;43.00
13369;DHT22;6753;52.520;13.450;2023-04-30T00:06:13;19.00;42.00
13369;DHT22;6753;52.520;13.450;2023-04-30T00:06:25;19.00;41.70
13369;DHT22;6753;52.520;13.450;2023-04-30T00:06:36;19.00;41.90
13369;DHT22;6753;52.520;13.450;2023-04-30T00:06:47;19.00;42.00
13369;DHT22;6753;52.520;13.450;2023-04-30T00:06:58;19.00;42.00
13369;DHT22;6753;52.520;13.450;2023-04-30T00:07:09;18.90;41.80
13369;DHT22;6753;52.520;13.450;2023-04-30T00:07:20;19.00;43.30
13369;DHT22;6753;52.520;13.450;2023-04-30T00:07:32;19.40;43.30
13369;DHT22;6753;52.520;13.450;2023-04-30T00:07:43;19.00;42.40
13369;DHT22;6753;52.520;13.450;2023-04-30T00:07:54;19.00;43.00
13369;DHT22;6753;52.520;13.450;2023-04-30T00:08:04;19.00;42.70
13369;DHT22;6753;52.520;13.450;2023-04-30T00:08:15;18.90;42.30
13369;DHT22;6753;52.520;13.450;2023-04-30T00:08:26;18.90;42.70
13369;DHT22;6753;52.520;13.450;2023-04-30T00:08:37;18.90;43.10
13369;DHT22;6753;52.520;13.450;2023-04-30T00:08:48;18.90;42.90
13369;DHT22;6753;52.520;13.450;2023-04-30T00:08:59;18.90;42.70
13369;DHT22;6753;52.520;13.450;2023-04-30T00:09:10;20.80;45.60
13369;DHT22;6753;52.520;13.450;2023-04-30T00:09:23;19.00;43.10
13369;DHT22;6753;52.520;13.450;2023-04-30T00:09:34;19.00;42.60
13369;DHT22;6753;52.520;13.450;2023-04-30T00:09:45;19.00;42.40
13369;DHT22;6753;52.520;13.450;2023-04-30T00:09:56;19.00;42.80
13369;DHT22;6753;52.520;13.450;2023-04-30T00:10:08;19.00;43.00
13369;DHT22;6753;52.520;13.450;2023-04-30T00:10:20;19.00;42.90
13369;DHT22;6753;52.520;13.450;2023-04-30T00:10:31;19.00;43.00
13369;DHT22;6753;52.520;13.450;2023-04-30T00:10:42;19.00;43.10
13369;DHT22;6753;52.520;13.450;2023-04-30T00:10:52;19.10;43.00
13369;DHT22;6753;52.520;13.450;2023-04-30T00:11:03;19.00;43.10
13369;DHT22;6753;52.520;13.450;2023-04-30T00:11:14;19.00;43.30
13369;DHT22;6753;52.520;13.450;2023-04-30T00:11:25;19.10;43.60
13369;DHT22;6753;52.520;13.450;2023-04-30T00:11:37;19.00;43.20
13369;DHT22;6753;52.520;13.450;2023-04-30T00:11:48;18.90;42.60
13369;DHT22;6753;52.520;13.450;2023-04-30T00:11:58;21.10;45.60
13369;DHT22;6753;52.520;13.450;2023-04-30T00:12:09;18.90;42.10
13369;DHT22;6753;52.520;13.450;2023-04-30T00:12:20;18.90;42.10
13369;DHT22;6753;52.520;13.450;2023-04-30T00:12:31;18.90;42.20
13369;DHT22;6753;52.520;13.450;2023-04-30T00:12:42;18.90;42.10
13369;DHT22;6753;52.520;13.450;2023-04-30T00:12:52;18.90;42.00
13369;DHT22;6753;52.520;13.450;2023-04-30T00:13:03;18.90;41.70
13369;DHT22;6753;52.520;13.450;2023-04-30T00:13:15;19.70;42.80
13369;DHT22;6753;52.520;13.450;2023-04-30T00:13:26;18.90;42.30
13369;DHT22;6753;52.520;13.450;2023-04-30T00:13:37;18.90;42.60
13369;DHT22;6753;52.520;13.450;2023-04-30T00:13:48;19.00;42.50
13369;DHT22;6753;52.520;13.450;2023-04-30T00:13:58;20.60;44.80
13369;DHT22;6753;52.520;13.450;2023-04-30T00:14:09;19.00;42.30
13369;DHT22;6753;52.520;13.450;2023-04-30T00:14:20;19.00;42.10
13369;DHT22;6753;52.520;13.450;2023-04-30T00:14:31;19.10;43.10
13369;DHT22;6753;52.520;13.450;2023-04-30T00:14:42;19.00;43.30
13369;DHT22;6753;52.520;13.450;2023-04-30T00:14:53;19.00;43.40
13369;DHT22;6753;52.520;13.450;2023-04-30T00:15:06;19.00;43.30
13369;DHT22;6753;52.520;13.450;2023-04-30T00:15:17;19.00;43.60
13369;DHT22;6753;52.520;13.450;2023-04-30T00:15:28;18.90;43.40
13369;DHT22;6753;52.520;13.450;2023-04-30T00:15:39;19.00;43.70
13369;DHT22;6753;52.520;13.450;2023-04-30T00:15:49;19.00;43.40
13369;DHT22;6753;52.520;13.450;2023-04-30T00:16:00;20.60;45.50
13369;DHT22;6753;52.520;13.450;2023-04-30T00:16:12;19.00;43.80
13369;DHT22;6753;52.520;13.450;2023-04-30T00:16:23;19.00;43.60
13369;DHT22;6753;52.520;13.450;2023-04-30T00:16:35;19.00;43.80
13369;DHT22;6753;52.520;13.450;2023-04-30T00:16:46;19.10;44.10
13369;DHT22;6753;52.520;13.450;2023-04-30T00:16:57;19.40;44.50
13369;DHT22;6753;52.520;13.450;2023-04-30T00:17:07;19.10;44.60
13369;DHT22;6753;52.520;13.450;2023-04-30T00:17:18;16.90;41.60
13369;DHT22;6753;52.520;13.450;2023-04-30T00:17:29;20.00;45.70
13369;DHT22;6753;52.520;13.450;2023-04-30T00:17:39;19.10;44.10
13369;DHT22;6753;52.520;13.450;2023-04-30T00:17:51;19.10;44.70
13369;DHT22;6753;52.520;13.450;2023-04-30T00:18:02;19.10;44.80
13369;DHT22;6753;52.520;13.450;2023-04-30T00:18:14;20.90;47.50
13369;DHT22;6753;52.520;13.450;2023-04-30T00:18:24;19.10;44.90
13369;DHT22;6753;52.520;13.450;2023-04-30T00:18:35;19.10;45.20
13369;DHT22;6753;52.520;13.450;2023-04-30T00:18:46;19.10;45.30
13369;DHT22;6753;52.520;13.450;2023-04-30T00:18:57;21.70;49.30
13369;DHT22;6753;52.520;13.450;2023-04-30T00:19:08;19.10;45.50
13369;DHT22;6753;52.520;13.450;2023-04-30T00:19:19;19.10;45.70
13369;DHT22;6753;52.520;13.450;2023-04-30T00:19:31;21.90;49.00
13369;DHT22;6753;52.520;13.450;2023-04-30T00:19:42;19.10;44.90
13369;DHT22;6753;52.520;13.450;2023-04-30T00:19:53;19.10;44.90
13369;DHT22;6753;52.520;13.450;2023-04-30T00:20:05;16.00;40.10
13369;DHT22;6753;52.520;13.450;2023-04-30T00:20:16;19.10;44.80
13369;DHT22;6753;52.520;13.450;2023-04-30T00:20:27;21.20;47.90
13369;DHT22;6753;52.520;13.450;2023-04-30T00:20:38;19.10;44.60
13369;DHT22;6753;52.520;13.450;2023-04-30T00:20:49;19.10;44.70
13369;DHT22;6753;52.520;13.450;2023-04-30T00:21:03;19.10;44.70
13369;DHT22;6753;52.520;13.450;2023-04-30T00:21:14;19.10;44.80
13369;DHT22;6753;52.520;13.450;2023-04-30T00:21:24;19.10;44.90
13369;DHT22;6753;52.520;13.450;2023-04-30T00:21:36;19.10;44.80
13369;DHT22;6753;52.520;13.450;2023-04-30T00:21:47;19.10;44.60
13369;DHT22;6753;52.520;13.450;2023-04-30T00:21:58;19.10;44.90
13369;DHT22;6753;52.520;13.450;2023-04-30T00:22:11;19.10;44.60
13369;DHT22;6753;52.520;13.450;2023-04-30T00:22:22;19.10;45.10
13369;DHT22;6753;52.520;13.450;2023-04-30T00:22:33;19.10;45.10
13369;DHT22;6753;52.520;13.450;2023-04-30T00:22:44;19.20;45.20
13369;DHT22;6753;52.520;13.450;2023-04-30T00:22:55;19.10;44.90
13369;DHT22;6753;52.520;13.450;2023-04-30T00:23:05;19.20;45.10
13369;DHT22;6753;52.520;13.450;2023-04-30T00:23:16;19.20;45.50
13369;DHT22;6753;52.520;13.450;2023-04-30T00:23:27;19.20;45.60
13369;DHT22;6753;52.520;13.450;2023-04-30T00:23:38;19.20;45.40
13369;DHT22;6753;52.520;13.450;2023-04-30T00:23:49;19.20;45.20
13369;DHT22;6753;52.520;13.450;2023-04-30T00:24:00;19.20;45.20
13369;DHT22;6753;52.520;13.450;2023-04-30T00:24:11;19.20;45.00
13369;DHT22;6753;52.520;13.450;2023-04-30T00:24:22;19.20;44.60
13369;DHT22;6753;52.520;13.450;2023-04-30T00:24:32;19.20;44.40
13369;DHT22;6753;52.520;13.450;2023-04-30T00:24:43;19.20;44.30
13369;DHT22;6753;52.520;13.450;2023-04-30T00:24:54;19.20;44.20
13369;DHT22;6753;52.520;13.450;2023-04-30T00:25:05;19.20;44.20
13369;DHT22;6753;52.520;13.450;2023-04-30T00:25:17;19.20;44.40
13369;DHT22;6753;52.520;13.450;2023-04-30T00:25:28;19.20;45.10
13369;DHT22;6753;52.520;13.450;2023-04-30T00:25:39;19.20;45.40
13369;DHT22;6753;52.520;13.450;2023-04-30T00:25:49;19.20;45.70
13369;DHT22;6753;52.520;13.450;2023-04-30T00:26:00;19.20;45.90
13369;DHT22;6753;52.520;13.450;2023-04-30T00:26:11;19.20;46.00
13369;DHT22;6753;52.520;13.450;2023-04-30T00:26:22;19.20;46.20
13369;DHT22;6753;52.520;13.450;2023-04-30T00:26:33;19.20;46.20
13369;DHT22;6753;52.520;13.450;2023-04-30T00:26:43;21.00;48.80
13369;DHT22;6753;52.520;13.450;2023-04-30T00:26:55;19.20;46.20
13369;DHT22;6753;52.520;13.450;2023-04-30T00:27:06;19.20;46.20
13369;DHT22;6753;52.520;13.450;2023-04-30T00:27:17;19.20;46.30
13369;DHT22;6753;52.520;13.450;2023-04-30T00:27:27;19.20;46.20
13369;DHT22;6753;52.520;13.450;2023-04-30T00:27:38;19.20;46.30
13369;DHT22;6753;52.520;13.450;2023-04-30T00:27:50;19.20;46.30
13369;DHT22;6753;52.520;13.450;2023-04-30T00:28:00;22.00;50.40
13369;DHT22;6753;52.520;13.450;2023-04-30T00:28:13;19.20;46.20
13369;DHT22;6753;52.520;13.450;2023-04-30T00:28:24;20.20;47.80
13369;DHT22;6753;52.520;13.450;2023-04-30T00:28:35;19.20;46.10
13369;DHT22;6753;52.520;13.450;2023-04-30T00:28:46;19.80;46.90
13369;DHT22;6753;52.520;13.450;2023-04-30T00:28:57;20.80;48.40
13369;DHT22;6753;52.520;13.450;2023-04-30T00:29:09;19.20;46.20
13369;DHT22;6753;52.520;13.450;2023-04-30T00:29:20;19.20;46.30
13369;DHT22;6753;52.520;13.450;2023-04-30T00:29:30;19.20;46.10
13369;DHT22;6753;52.520;13.450;2023-04-30T00:29:41;19.20;46.00
13369;DHT22;6753;52.520;13.450;2023-04-30T00:29:53;19.20;45.90
13369;DHT22;6753;52.520;13.450;2023-04-30T00:30:05;19.20;46.00
13369;DHT22;6753;52.520;13.450;2023-04-30T00:30:16;19.20;46.10
13369;DHT22;6753;52.520;13.450;2023-04-30T00:30:27;19.30;46.10
13369;DHT22;6753;52.520;13.450;2023-04-30T00:30:38;20.60;48.00
13369;DHT22;6753;52.520;13.450;2023-04-30T00:30:49;21.10;49.10
13369;DHT22;6753;52.520;13.450;2023-04-30T00:31:00;19.30;46.60
13369;DHT22;6753;52.520;13.450;2023-04-30T00:31:12;21.30;49.50
13369;DHT22;6753;52.520;13.450;2023-04-30T00:31:22;19.30;46.60
13369;DHT22;6753;52.520;13.450;2023-04-30T00:31:34;19.30;46.60
13369;DHT22;6753;52.520;13.450;2023-04-30T00:31:45;19.40;46.90
13369;DHT22;6753;52.520;13.450;2023-04-30T00:31:56;19.40;47.00
13369;DHT22;6753;52.520;13.450;2023-04-30T00:32:07;19.30;46.60
13369;DHT22;6753;52.520;13.450;2023-04-30T00:32:17;19.60;46.90
13369;DHT22;6753;52.520;13.450;2023-04-30T00:32:29;19.30;46.70
13369;DHT22;6753;52.520;13.450;2023-04-30T00:32:40;19.40;46.70
13369;DHT22;6753;52.520;13.450;2023-04-30T00:32:51;19.40;46.60
13369;DHT22;6753;52.520;13.450;2023-04-30T00:33:02;19.50;46.70
13369;DHT22;6753;52.520;13.450;2023-04-30T00:33:12;19.40;46.70
13369;DHT22;6753;52.520;13.450;2023-04-30T00:33:26;19.40;46.70
13369;DHT22;6753;52.520;13.450;2023-04-30T00:33:37;19.40;46.50
13369;DHT22;6753;52.520;13.450;2023-04-30T00:33:48;20.90;48.60
13369;DHT22;6753;52.520;13.450;2023-04-30T00:33:59;19.40;46.30
13369;DHT22;6753;52.520;13.450;2023-04-30T00:34:11;19.40;46.20
13369;DHT22;6753;52.520;13.450;2023-04-30T00:34:22;19.40;46.40
13369;DHT22;6753;52.520;13.450;2023-04-30T00:34:32;19.40;46.60
13369;DHT22;6753;52.520;13.450;2023-04-30T00:34:43;19.10;46.20
13369;DHT22;6753;52.520;13.450;2023-04-30T00:34:54;19.40;46.70
13369;DHT22;6753;52.520;13.450;2023-04-30T00:35:05;19.40;46.70
13369;DHT22;6753;52.520;13.450;2023-04-30T00:35:16;19.40;46.80
13369;DHT22;6753;52.520;13.450;2023-04-30T00:35:27;19.30;46.70
13369;DHT22;6753;52.520;13.450;2023-04-30T00:35:39;19.40;46.70
13369;DHT22;6753;52.520;13.450;2023-04-30T00:35:50;19.40;46.90
13369;DHT22;6753;52.520;13.450;2023-04-30T00:36:00;19.40;46.90
13369;DHT22;6753;52.520;13.450;2023-04-30T00:36:14;19.40;47.00
13369;DHT22;6753;52.520;13.450;2023-04-30T00:36:27;19.40;47.10
13369;DHT22;6753;52.520;13.450;2023-04-30T00:36:38;19.40;47.30
13369;DHT22;6753;52.520;13.450;2023-04-30T00:36:49;19.30;47.10
13369;DHT22;6753;52.520;13.450;2023-04-30T00:37:01;19.40;47.30
13369;DHT22;6753;52.520;13.450;2023-04-30T00:37:13;20.60;49.10
13369;DHT22;6753;52.520;13.450;2023-04-30T00:37:23;19.30;47.20
13369;DHT22;6753;52.520;13.450;2023-04-30T00:37:34;19.40;47.30
13369;DHT22;6753;52.520;13.450;2023-04-30T00:37:45;19.30;47.00
13369;DHT22;6753;52.520;13.450;2023-04-30T00:37:56;19.30;47.10
13369;DHT22;6753;52.520;13.450;2023-04-30T00:38:06;22.30;51.50
13369;DHT22;6753;52.520;13.450;2023-04-30T00:38:17;19.40;47.30
13369;DHT22;6753;52.520;13.450;2023-04-30T00:38:28;20.60;49.20
13369;DHT22;6753;52.520;13.450;2023-04-30T00:38:40;19.40;47.50
13369;DHT22;6753;52.520;13.450;2023-04-30T00:38:50;21.00;49.80
13369;DHT22;6753;52.520;13.450;2023-04-30T00:39:01;19.30;47.30
13369;DHT22;6753;52.520;13.450;2023-04-30T00:39:12;19.40;47.50
13369;DHT22;6753;52.520;13.450;2023-04-30T00:39:23;19.40;47.50
13369;DHT22;6753;52.520;13.450;2023-04-30T00:39:33;19.40;47.50
13369;DHT22;6753;52.520;13.450;2023-04-30T00:39:44;19.40;47.40
13369;DHT22;6753;52.520;13.450;2023-04-30T00:39:56;19.40;47.40
13369;DHT22;6753;52.520;13.450;2023-04-30T00:40:08;19.40;47.40
13369;DHT22;6753;52.520;13.450;2023-04-30T00:40:19;19.40;47.50
13369;DHT22;6753;52.520;13.450;2023-04-30T00:40:30;19.40;47.40
13369;DHT22;6753;52.520;13.450;2023-04-30T00:40:43;19.30;47.30
13369;DHT22;6753;52.520;13.450;2023-04-30T00:40:54;20.10;48.60
13369;DHT22;6753;52.520;13.450;2023-04-30T00:41:05;19.40;47.60
13369;DHT22;6753;52.520;13.450;2023-04-30T00:41:15;19.40;47.70
13369;DHT22;6753;52.520;13.450;2023-04-30T00:41:28;21.80;51.30
13369;DHT22;6753;52.520;13.450;2023-04-30T00:41:40;20.70;49.70
13369;DHT22;6753;52.520;13.450;2023-04-30T00:41:51;19.40;47.80
13369;DHT22;6753;52.520;13.450;2023-04-30T00:42:02;19.40;47.90
13369;DHT22;6753;52.520;13.450;2023-04-30T00:42:12;19.40;47.80
13369;DHT22;6753;52.520;13.450;2023-04-30T00:42:23;19.40;47.90
13369;DHT22;6753;52.520;13.450;2023-04-30T00:42:34;22.00;51.70
13369;DHT22;6753;52.520;13.450;2023-04-30T00:42:45;19.40;47.80
13369;DHT22;6753;52.520;13.450;2023-04-30T00:42:58;19.50;48.00
13369;DHT22;6753;52.520;13.450;2023-04-30T00:43:08;19.40;47.80
13369;DHT22;6753;52.520;13.450;2023-04-30T00:43:19;19.40;47.80
13369;DHT22;6753;52.520;13.450;2023-04-30T00:43:30;20.90;50.00
13369;DHT22;6753;52.520;13.450;2023-04-30T00:43:41;19.40;47.80
13369;DHT22;6753;52.520;13.450;2023-04-30T00:43:52;20.30;49.10
13369;DHT22;6753;52.520;13.450;2023-04-30T00:44:02;19.40;47.80
13369;DHT22;6753;52.520;13.450;2023-04-30T00:44:13;19.40;47.80
13369;DHT22;6753;52.520;13.450;2023-04-30T00:44:25;19.40;47.80
13369;DHT22;6753;52.520;13.450;2023-04-30T00:44:36;20.50;49.40
13369;DHT22;6753;52.520;13.450;2023-04-30T00:44:47;19.50;48.00
13369;DHT22;6753;52.520;13.450;2023-04-30T00:44:57;19.40;47.80
13369;DHT22;6753;52.520;13.450;2023-04-30T00:45:09;19.40;48.40
13369;DHT22;6753;52.520;13.450;2023-04-30T00:45:21;19.40;47.80
13369;DHT22;6753;52.520;13.450;2023-04-30T00:45:32;19.40;47.80
13369;DHT22;6753;52.520;13.450;2023-04-30T00:45:43;22.00;51.60
13369;DHT22;6753;52.520;13.450;2023-04-30T00:45:54;21.00;50.10
13369;DHT22;6753;52.520;13.450;2023-04-30T00:46:06;19.40;47.80
13369;DHT22;6753;52.520;13.450;2023-04-30T00:46:16;19.50;48.00
13369;DHT22;6753;52.520;13.450;2023-04-30T00:46:27;19.40;48.00
13369;DHT22;6753;52.520;13.450;2023-04-30T00:46:40;19.50;48.00
13369;DHT22;6753;52.520;13.450;2023-04-30T00:46:50;22.60;52.60
13369;DHT22;6753;52.520;13.450;2023-04-30T00:47:01;19.50;48.10
13369;DHT22;6753;52.520;13.450;2023-04-30T00:47:13;19.50;48.00
13369;DHT22;6753;52.520;13.450;2023-04-30T00:47:24;19.50;48.00
13369;DHT22;6753;52.520;13.450;2023-04-30T00:47:35;19.50;48.00
13369;DHT22;6753;52.520;13.450;2023-04-30T00:47:46;19.50;48.00
13369;DHT22;6753;52.520;13.450;2023-04-30T00:47:57;19.50;47.90
13369;DHT22;6753;52.520;13.450;2023-04-30T00:48:08;19.50;48.10
13369;DHT22;6753;52.520;13.450;2023-04-30T00:48:19;20.70;49.70
13369;DHT22;6753;52.520;13.450;2023-04-30T00:48:30;20.00;48.80
13369;DHT22;6753;52.520;13.450;2023-04-30T00:48:41;19.50;48.30
13369;DHT22;6753;52.520;13.450;2023-04-30T00:48:52;19.50;48.30
13369;DHT22;6753;52.520;13.450;2023-04-30T00:49:03;21.10;50.70
13369;DHT22;6753;52.520;13.450;2023-04-30T00:49:14;19.50;48.30
13369;DHT22;6753;52.520;13.450;2023-04-30T00:49:25;20.90;50.30
13369;DHT22;6753;52.520;13.450;2023-04-30T00:49:36;19.50;48.20
13369;DHT22;6753;52.520;13.450;2023-04-30T00:49:47;21.60;51.20
13369;DHT22;6753;52.520;13.450;2023-04-30T00:49:58;19.50;48.30
13369;DHT22;6753;52.520;13.450;2023-04-30T00:50:10;19.50;48.40
13369;DHT22;6753;52.520;13.450;2023-04-30T00:50:25;19.50;48.40
13369;DHT22;6753;52.520;13.450;2023-04-30T00:50:36;19.50;48.50
13369;DHT22;6753;52.520;13.450;2023-04-30T00:50:50;19.50;48.50
13369;DHT22;6753;52.520;13.450;2023-04-30T00:51:01;19.50;48.20
13369;DHT22;6753;52.520;13.450;2023-04-30T00:51:13;19.50;48.10
13369;DHT22;6753;52.520;13.450;2023-04-30T00:51:24;19.50;48.10
13369;DHT22;6753;52.520;13.450;2023-04-30T00:51:37;19.60;48.40
13369;DHT22;6753;52.520;13.450;2023-04-30T00:51:51;22.20;52.20
13369;DHT22;6753;52.520;13.450;2023-04-30T00:52:02;19.50;48.30
13369;DHT22;6753;52.520;13.450;2023-04-30T00:52:13;19.50;48.30
13369;DHT22;6753;52.520;13.450;2023-04-30T00:52:24;19.50;48.20
13369;DHT22;6753;52.520;13.450;2023-04-30T00:52:35;19.50;48.30
13369;DHT22;6753;52.520;13.450;2023-04-30T00:52:46;19.40;48.20
13369;DHT22;6753;52.520;13.450;2023-04-30T00:52:57;19.50;48.40
13369;DHT22;6753;52.520;13.450;2023-04-30T00:53:09;19.50;48.50
13369;DHT22;6753;52.520;13.450;2023-04-30T00:53:20;19.50;48.60
13369;DHT22;6753;52.520;13.450;2023-04-30T00:53:32;19.50;48.50
13369;DHT22;6753;52.520;13.450;2023-04-30T00:53:44;19.50;48.60
13369;DHT22;6753;52.520;13.450;2023-04-30T00:53:55;21.70;51.90
13369;DHT22;6753;52.520;13.450;2023-04-30T00:54:07;20.40;50.10
13369;DHT22;6753;52.520;13.450;2023-04-30T00:54:19;19.50;48.90
13369;DHT22;6753;52.520;13.450;2023-04-30T00:54:30;19.50;49.50
13369;DHT22;6753;52.520;13.450;2023-04-30T00:54:41;19.40;48.70
13369;DHT22;6753;52.520;13.450;2023-04-30T00:54:53;20.60;50.40
13369;DHT22;6753;52.520;13.450;2023-04-30T00:55:05;21.90;52.40
13369;DHT22;6753;52.520;13.450;2023-04-30T00:55:17;19.50;48.90
13369;DHT22;6753;52.520;13.450;2023-04-30T00:55:28;19.50;49.00
13369;DHT22;6753;52.520;13.450;2023-04-30T00:55:43;21.80;52.20
13369;DHT22;6753;52.520;13.450;2023-04-30T00:55:54;19.50;49.10
13369;DHT22;6753;52.520;13.450;2023-04-30T00:56:08;19.50;49.00
13369;DHT22;6753;52.520;13.450;2023-04-30T00:56:20;21.40;51.80
13369;DHT22;6753;52.520;13.450;2023-04-30T00:56:31;19.40;48.80
13369;DHT22;6753;52.520;13.450;2023-04-30T00:56:42;19.40;48.80
13369;DHT22;6753;52.520;13.450;2023-04-30T00:56:52;19.40;48.70
13369;DHT22;6753;52.520;13.450;2023-04-30T00:57:04;19.40;48.70
13369;DHT22;6753;52.520;13.450;2023-04-30T00:57:16;21.60;52.00
13369;DHT22;6753;52.520;13.450;2023-04-30T00:57:27;21.70;52.10
13369;DHT22;6753;52.520;13.450;2023-04-30T00:57:39;19.40;48.90
13369;DHT22;6753;52.520;13.450;2023-04-30T00:57:50;19.40;48.90
13369;DHT22;6753;52.520;13.450;2023-04-30T00:58:01;19.40;48.80
13369;DHT22;6753;52.520;13.450;2023-04-30T00:58:12;19.40;48.80
13369;DHT22;6753;52.520;13.450;2023-04-30T00:58:24;19.40;48.80
13369;DHT22;6753;52.520;13.450;2023-04-30T00:58:35;19.40;48.80
13369;DHT22;6753;52.520;13.450;2023-04-30T00:58:46;21.10;51.10
13369;DHT22;6753;52.520;13.450;2023-04-30T00:58:59;20.80;50.70
13369;DHT22;6753;52.520;13.450;2023-04-30T00:59:11;19.40;48.60
13369;DHT22;6753;52.520;13.450;2023-04-30T00:59:25;19.40;48.60
13369;DHT22;6753;52.520;13.450;2023-04-30T00:59:37;19.40;48.60
13369;DHT22;6753;52.520;13.450;2023-04-30T00:59:49;19.40;48.60
13369;DHT22;6753;52.520;13.450;2023-04-30T01:00:01;19.40;48.60
13369;DHT22;6753;52.520;13.450;2023-04-30T01:00:12;19.40;48.70
13369;DHT22;6753;52.520;13.450;2023-04-30T01:00:24;19.40;48.80
13369;DHT22;6753;52.520;13.450;2023-04-30T01:00:35;19.40;48.80
13369;DHT22;6753;52.520;13.450;2023-04-30T01:00:46;19.40;49.40
13369;DHT22;6753;52.520;13.450;2023-04-30T01:00:57;19.40;49.00
13369;DHT22;6753;52.520;13.450;2023-04-30T01:01:08;19.40;48.90
13369;DHT22;6753;52.520;13.450;2023-04-30T01:01:19;19.40;48.90
13369;DHT22;6753;52.520;13.450;2023-04-30T01:01:32;19.40;48.90
13369;DHT22;6753;52.520;13.450;2023-04-30T01:01:44;19.40;49.00
13369;DHT22;6753;52.520;13.450;2023-04-30T01:01:55;19.40;49.00
13369;DHT22;6753;52.520;13.450;2023-04-30T01:02:06;19.40;48.90
13369;DHT22;6753;52.520;13.450;2023-04-30T01:02:17;19.40;48.80
13369;DHT22;6753;52.520;13.450;2023-04-30T01:02:29;19.40;48.80
13369;DHT22;6753;52.520;13.450;2023-04-30T01:02:40;19.40;48.80
13369;DHT22;6753;52.520;13.450;2023-04-30T01:02:52;19.40;48.80
13369;DHT22;6753;52.520;13.450;2023-04-30T01:03:03;19.40;49.00
13369;DHT22;6753;52.520;13.450;2023-04-30T01:03:14;19.40;49.10
13369;DHT22;6753;52.520;13.450;2023-04-30T01:03:25;19.40;49.20
13369;DHT22;6753;52.520;13.450;2023-04-30T01:03:37;19.50;49.40
13369;DHT22;6753;52.520;13.450;2023-04-30T01:03:49;19.40;49.30
13369;DHT22;6753;52.520;13.450;2023-04-30T01:04:00;19.40;49.20
13369;DHT22;6753;52.520;13.450;2023-04-30T01:04:11;19.40;49.20
13369;DHT22;6753;52.520;13.450;2023-04-30T01:04:23;19.50;49.20
13369;DHT22;6753;52.520;13.450;2023-04-30T01:04:34;19.40;49.10
13369;DHT22;6753;52.520;13.450;2023-04-30T01:04:45;19.50;49.20
13369;DHT22;6753;52.520;13.450;2023-04-30T01:04:56;19.40;49.00
13369;DHT22;6753;52.520;13.450;2023-04-30T01:05:07;19.40;49.00
13369;DHT22;6753;52.520;13.450;2023-04-30T01:05:18;19.50;49.10
13369;DHT22;6753;52.520;13.450;2023-04-30T01:05:29;19.50;49.20
13369;DHT22;6753;52.520;13.450;2023-04-30T01:05:40;19.50;49.10
13369;DHT22;6753;52.520;13.450;2023-04-30T01:05:52;19.50;49.10
13369;DHT22;6753;52.520;13.450;2023-04-30T01:06:03;19.50;49.20
13369;DHT22;6753;52.520;13.450;2023-04-30T01:06:14;19.50;49.20
13369;DHT22;6753;52.520;13.450;2023-04-30T01:06:25;19.50;49.10
13369;DHT22;6753;52.520;13.450;2023-04-30T01:06:36;20.80;51.10
13369;DHT22;6753;52.520;13.450;2023-04-30T01:06:47;19.50;49.20
13369;DHT22;6753;52.520;13.450;2023-04-30T01:06:59;19.50;49.10
13369;DHT22;6753;52.520;13.450;2023-04-30T01:07:11;19.50;49.10
13369;DHT22;6753;52.520;13.450;2023-04-30T01:07:22;19.50;49.10
13369;DHT22;6753;52.520;13.450;2023-04-30T01:07:34;19.50;49.70
13369;DHT22;6753;52.520;13.450;2023-04-30T01:07:45;19.50;49.10
13369;DHT22;6753;52.520;13.450;2023-04-30T01:07:56;19.50;49.10
13369;DHT22;6753;52.520;13.450;2023-04-30T01:08:07;19.50;49.20
13369;DHT22;6753;52.520;13.450;2023-04-30T01:08:20;20.30;50.40
13369;DHT22;6753;52.520;13.450;2023-04-30T01:08:31;19.50;49.20
13369;DHT22;6753;52.520;13.450;2023-04-30T01:08:43;19.50;49.10
13369;DHT22;6753;52.520;13.450;2023-04-30T01:08:54;19.50;49.10
13369;DHT22;6753;52.520;13.450;2023-04-30T01:09:07;19.50;49.20
13369;DHT22;6753;52.520;13.450;2023-04-30T01:09:18;19.50;49.20
13369;DHT22;6753;52.520;13.450;2023-04-30T01:09:29;21.10;51.70
13369;DHT22;6753;52.520;13.450;2023-04-30T01:09:43;21.70;52.70
13369;DHT22;6753;52.520;13.450;2023-04-30T01:09:54;19.50;49.30
13369;DHT22;6753;52.520;13.450;2023-04-30T01:10:06;19.50;49.30
13369;DHT22;6753;52.520;13.450;2023-04-30T01:10:18;19.50;49.40
13369;DHT22;6753;52.520;13.450;2023-04-30T01:10:35;19.50;49.40
13369;DHT22;6753;52.520;13.450;2023-04-30T01:10:54;19.50;49.30
13369;DHT22;6753;52.520;13.450;2023-04-30T01:11:15;19.50;49.20
13369;DHT22;6753;52.520;13.450;2023-04-30T01:11:34;19.60;49.40